Wednesday, October 18, 2017, 4:49 PM CDT
Back to Local

KJLN, Joplin Regional Airport

Location: Webb City, MO, United States Lat: 37.15
Local Time: 4:49 PM CDT (21:49 GMT) Lon: -94.5
Time Zone: US/Central Elev: 980 ft

Show me the last for .
Show Decoded

2017-10-18 15:53 METAR KJLN 182053Z 18012KT 10SM CLR 23/09 A3006 RMK AO2 SLP176 T02330094 55015 =
2017-10-18 14:53 METAR KJLN 181953Z 19018KT 10SM CLR 24/09 A3006 RMK AO2 SLP174 T02440089 =
2017-10-18 13:53 METAR KJLN 181853Z 18017KT 10SM CLR 23/09 A3007 RMK AO2 SLP177 T02330089 =
2017-10-18 12:53 METAR KJLN 181753Z 21011KT 10SM CLR 22/09 A3011 RMK AO2 SLP191 T02220089 10222
                 20094 56014 =
2017-10-18 11:53 METAR KJLN 181653Z 19016KT 10SM CLR 21/08 A3012 RMK AO2 SLP194 T02060078 =
2017-10-18 10:53 METAR KJLN 181553Z 20016G22KT 10SM CLR 19/07 A3013 RMK AO2 SLP199 T01890072 =
2017-10-18 09:53 METAR KJLN 181453Z 18011KT 10SM CLR 17/07 A3015 RMK AO2 SLP206 T01670072 51008 =
2017-10-18 08:53 METAR KJLN 181353Z 17009KT 10SM CLR 13/07 A3015 RMK AO2 SLP206 T01280067 =
2017-10-18 07:53 METAR KJLN 181253Z 17010KT 10SM CLR 10/06 A3013 RMK AO2 SLP200 T01000061 =
2017-10-18 06:53 METAR KJLN 181153Z 17009KT 10SM CLR 09/06 A3012 RMK AO2 SLP198 T00940056 10106
                 20089 56001 =
2017-10-18 05:53 METAR KJLN 181053Z 17008KT 10SM CLR 09/06 A3013 RMK AO2 SLP198 T00940061 =
2017-10-18 04:53 METAR KJLN 180953Z AUTO 17009KT 10SM CLR 09/06 A3012 RMK AO2 SLP196 T00940061 =
2017-10-18 03:53 METAR KJLN 180853Z AUTO 17009KT 10SM CLR 10/06 A3013 RMK AO2 SLP197 T01000061
                 58009 =
2017-10-18 02:53 METAR KJLN 180753Z AUTO 17007KT 10SM CLR 09/07 A3015 RMK AO2 SLP204 T00940067 =
2017-10-18 01:53 METAR KJLN 180653Z AUTO 16007KT 10SM CLR 10/07 A3014 RMK AO2 SLP203 T01000067 =
2017-10-18 00:53 METAR KJLN 180553Z AUTO 16007KT 10SM CLR 10/07 A3015 RMK AO2 SLP207 T01000067
                 10161 20100 402170061 58003 =
2017-10-17 23:53 METAR KJLN 180453Z AUTO 15006KT 10SM CLR 12/07 A3016 RMK AO2 SLP209 T01170067 =
2017-10-17 22:53 METAR KJLN 180353Z AUTO 17007KT 10SM CLR 11/07 A3016 RMK AO2 SLP211 T01110072 =
2017-10-17 21:53 METAR KJLN 180253Z AUTO 18008KT 10SM CLR 12/08 A3016 RMK AO2 SLP212 T01170078
                 51008 =
2017-10-17 20:53 METAR KJLN 180153Z 18006KT 10SM CLR 14/08 A3016 RMK AO2 SLP209 T01390078 =
2017-10-17 19:53 METAR KJLN 180053Z 16005KT 10SM CLR 15/08 A3015 RMK AO2 SLP209 T01500078 =
2017-10-17 18:53 METAR KJLN 172353Z 17006KT 10SM CLR 16/08 A3014 RMK AO2 SLP204 T01560078 10217
                 20156 58009 =
2017-10-17 17:53 METAR KJLN 172253Z 20009KT 10SM CLR 20/07 A3015 RMK AO2 SLP206 T02000072 =
2017-10-17 16:53 METAR KJLN 172153Z 20008KT 10SM CLR 22/07 A3016 RMK AO2 SLP209 T02170072 =

Support USWX by starting your Amazon purchase here.